Hamden, Ohio
Current Conditions -  °F | °C
As of 3:35 PM on Thursday 23 Oct 2014 (Local Time) from KUNI Reporting Station
Clear Clear  
Wind Chill: 16°   Ceiling: Unl
Heat Index: 16°   Visibility: 10mi
Dew Point:   Wind: 8mph
Humidity: 49%   Direction: 320°NW
Pressure: 30.12"   Gusts: NA
Location:  39.16°N, 82.53°W
Report Text: KUNI 231935Z AUTO 32007KT 300V360 10SM CLR 16/05 A3012 RMK AO2 T01560048
Loading
Personal Weather Stations






























Interactive Weather Map
Tropical Storm Tracking
New forecast layout! Learn more

10-Day Weather Forecast

Advertisements
Track Severe Weather on mobile